sensor_id;sensor_type;location;lat;lon;timestamp;pressure;altitude;pressure_sealevel;temperature;humidity
70304;BME280;57712;48.752;11.348;2024-01-10T00:00:08;98319.19;;;-4.79;100.00
70304;BME280;57712;48.752;11.348;2024-01-10T00:02:38;98317.19;;;-4.73;100.00
70304;BME280;57712;48.752;11.348;2024-01-10T00:05:05;98323.31;;;-4.73;100.00
70304;BME280;57712;48.752;11.348;2024-01-10T00:07:32;98312.63;;;-4.73;100.00
70304;BME280;57712;48.752;11.348;2024-01-10T00:09:58;98317.38;;;-4.70;100.00
70304;BME280;57712;48.752;11.348;2024-01-10T00:12:27;98317.38;;;-4.70;100.00
70304;BME280;57712;48.752;11.348;2024-01-10T00:14:59;98312.41;;;-4.62;100.00
70304;BME280;57712;48.752;11.348;2024-01-10T00:17:26;98306.47;;;-4.59;100.00
70304;BME280;57712;48.752;11.348;2024-01-10T00:19:53;98319.66;;;-4.63;100.00
70304;BME280;57712;48.752;11.348;2024-01-10T00:22:19;98314.50;;;-4.59;100.00
70304;BME280;57712;48.752;11.348;2024-01-10T00:24:46;98319.34;;;-4.61;100.00
70304;BME280;57712;48.752;11.348;2024-01-10T00:27:13;98312.59;;;-4.59;100.00
70304;BME280;57712;48.752;11.348;2024-01-10T00:29:39;98311.72;;;-4.54;100.00
70304;BME280;57712;48.752;11.348;2024-01-10T00:32:06;98315.19;;;-4.54;100.00
70304;BME280;57712;48.752;11.348;2024-01-10T00:34:33;98310.16;;;-4.55;100.00
70304;BME280;57712;48.752;11.348;2024-01-10T00:37:00;98309.22;;;-4.51;100.00
70304;BME280;57712;48.752;11.348;2024-01-10T00:39:26;98310.03;;;-4.50;100.00
70304;BME280;57712;48.752;11.348;2024-01-10T00:41:53;98309.94;;;-4.45;100.00
70304;BME280;57712;48.752;11.348;2024-01-10T00:44:20;98308.84;;;-4.44;100.00
70304;BME280;57712;48.752;11.348;2024-01-10T00:46:46;98309.66;;;-4.57;100.00
70304;BME280;57712;48.752;11.348;2024-01-10T00:49:13;98304.09;;;-4.47;100.00
70304;BME280;57712;48.752;11.348;2024-01-10T00:51:40;98313.19;;;-4.48;100.00
70304;BME280;57712;48.752;11.348;2024-01-10T00:54:06;98301.91;;;-4.45;100.00
70304;BME280;57712;48.752;11.348;2024-01-10T00:56:33;98308.44;;;-4.51;100.00
70304;BME280;57712;48.752;11.348;2024-01-10T00:59:00;98299.09;;;-4.40;100.00
70304;BME280;57712;48.752;11.348;2024-01-10T01:01:27;98309.22;;;-4.37;100.00
70304;BME280;57712;48.752;11.348;2024-01-10T01:03:54;98305.06;;;-4.43;100.00
70304;BME280;57712;48.752;11.348;2024-01-10T01:06:20;98306.66;;;-4.42;100.00
70304;BME280;57712;48.752;11.348;2024-01-10T01:08:47;98308.31;;;-4.32;100.00
70304;BME280;57712;48.752;11.348;2024-01-10T01:11:14;98308.72;;;-4.39;100.00
70304;BME280;57712;48.752;11.348;2024-01-10T01:13:41;98314.94;;;-4.30;100.00
70304;BME280;57712;48.752;11.348;2024-01-10T01:16:07;98311.78;;;-4.32;100.00
70304;BME280;57712;48.752;11.348;2024-01-10T01:18:34;98309.81;;;-4.40;100.00
70304;BME280;57712;48.752;11.348;2024-01-10T01:21:03;98324.03;;;-4.31;100.00
70304;BME280;57712;48.752;11.348;2024-01-10T01:23:29;98319.78;;;-4.32;100.00
70304;BME280;57712;48.752;11.348;2024-01-10T01:26:07;98318.31;;;-4.38;100.00
70304;BME280;57712;48.752;11.348;2024-01-10T01:28:33;98331.59;;;-4.33;100.00
70304;BME280;57712;48.752;11.348;2024-01-10T01:31:00;98330.22;;;-4.44;100.00
70304;BME280;57712;48.752;11.348;2024-01-10T01:33:27;98326.06;;;-4.50;100.00
70304;BME280;57712;48.752;11.348;2024-01-10T01:35:54;98332.97;;;-4.36;100.00
70304;BME280;57712;48.752;11.348;2024-01-10T01:38:21;98327.53;;;-4.44;100.00
70304;BME280;57712;48.752;11.348;2024-01-10T01:40:47;98327.47;;;-4.53;100.00
70304;BME280;57712;48.752;11.348;2024-01-10T01:43:22;98328.41;;;-4.35;100.00
70304;BME280;57712;48.752;11.348;2024-01-10T01:45:52;98332.41;;;-4.46;100.00
70304;BME280;57712;48.752;11.348;2024-01-10T01:48:20;98329.00;;;-4.38;100.00
70304;BME280;57712;48.752;11.348;2024-01-10T01:50:49;98329.91;;;-4.43;100.00
70304;BME280;57712;48.752;11.348;2024-01-10T01:53:17;98330.38;;;-4.27;100.00
70304;BME280;57712;48.752;11.348;2024-01-10T01:55:45;98331.97;;;-4.26;100.00
70304;BME280;57712;48.752;11.348;2024-01-10T01:58:12;98337.81;;;-4.24;100.00
70304;BME280;57712;48.752;11.348;2024-01-10T02:00:39;98329.56;;;-4.27;100.00
70304;BME280;57712;48.752;11.348;2024-01-10T02:03:07;98331.59;;;-4.33;100.00
70304;BME280;57712;48.752;11.348;2024-01-10T02:05:35;98332.19;;;-4.36;100.00
70304;BME280;57712;48.752;11.348;2024-01-10T02:08:02;98328.53;;;-4.40;100.00
70304;BME280;57712;48.752;11.348;2024-01-10T02:10:29;98324.66;;;-4.34;100.00
70304;BME280;57712;48.752;11.348;2024-01-10T02:12:56;98335.34;;;-4.34;100.00
70304;BME280;57712;48.752;11.348;2024-01-10T02:15:23;98336.31;;;-4.30;100.00
70304;BME280;57712;48.752;11.348;2024-01-10T02:17:50;98340.53;;;-4.51;100.00
70304;BME280;57712;48.752;11.348;2024-01-10T02:20:17;98337.84;;;-4.51;100.00
70304;BME280;57712;48.752;11.348;2024-01-10T02:22:46;98336.00;;;-4.65;100.00
70304;BME280;57712;48.752;11.348;2024-01-10T02:25:13;98336.19;;;-4.47;100.00
70304;BME280;57712;48.752;11.348;2024-01-10T02:27:40;98338.94;;;-4.52;100.00
70304;BME280;57712;48.752;11.348;2024-01-10T02:30:08;98337.53;;;-4.50;100.00
70304;BME280;57712;48.752;11.348;2024-01-10T02:32:35;98343.59;;;-4.44;100.00
70304;BME280;57712;48.752;11.348;2024-01-10T02:35:03;98339.34;;;-4.45;100.00
70304;BME280;57712;48.752;11.348;2024-01-10T02:37:31;98337.75;;;-4.46;100.00
70304;BME280;57712;48.752;11.348;2024-01-10T02:39:58;98335.88;;;-4.59;100.00
70304;BME280;57712;48.752;11.348;2024-01-10T02:42:24;98339.44;;;-4.50;100.00
70304;BME280;57712;48.752;11.348;2024-01-10T02:44:51;98335.00;;;-4.55;100.00
70304;BME280;57712;48.752;11.348;2024-01-10T02:47:17;98328.84;;;-4.55;100.00
70304;BME280;57712;48.752;11.348;2024-01-10T02:49:44;98332.63;;;-4.56;100.00
70304;BME280;57712;48.752;11.348;2024-01-10T02:52:11;98335.59;;;-4.58;100.00
70304;BME280;57712;48.752;11.348;2024-01-10T02:54:39;98331.66;;;-4.88;100.00
70304;BME280;57712;48.752;11.348;2024-01-10T02:57:05;98322.72;;;-4.83;100.00
70304;BME280;57712;48.752;11.348;2024-01-10T02:59:32;98324.53;;;-4.79;100.00
70304;BME280;57712;48.752;11.348;2024-01-10T03:01:59;98325.09;;;-4.82;100.00
70304;BME280;57712;48.752;11.348;2024-01-10T03:04:25;98317.78;;;-4.90;100.00
70304;BME280;57712;48.752;11.348;2024-01-10T03:06:52;98323.63;;;-4.88;100.00
70304;BME280;57712;48.752;11.348;2024-01-10T03:09:19;98312.75;;;-4.78;100.00
70304;BME280;57712;48.752;11.348;2024-01-10T03:11:46;98314.72;;;-4.97;100.00
70304;BME280;57712;48.752;11.348;2024-01-10T03:14:12;98311.25;;;-4.84;100.00
70304;BME280;57712;48.752;11.348;2024-01-10T03:16:39;98317.69;;;-5.12;100.00
70304;BME280;57712;48.752;11.348;2024-01-10T03:19:06;98312.06;;;-4.97;100.00
70304;BME280;57712;48.752;11.348;2024-01-10T03:21:32;98318.69;;;-4.95;100.00
70304;BME280;57712;48.752;11.348;2024-01-10T03:24:00;98308.69;;;-5.03;100.00
70304;BME280;57712;48.752;11.348;2024-01-10T03:26:28;98311.47;;;-4.94;100.00
70304;BME280;57712;48.752;11.348;2024-01-10T03:28:57;98307.41;;;-5.05;100.00
70304;BME280;57712;48.752;11.348;2024-01-10T03:31:24;98305.94;;;-4.98;100.00
70304;BME280;57712;48.752;11.348;2024-01-10T03:33:51;98311.56;;;-4.99;100.00
70304;BME280;57712;48.752;11.348;2024-01-10T03:36:18;98306.22;;;-4.99;100.00
70304;BME280;57712;48.752;11.348;2024-01-10T03:38:45;98304.72;;;-5.05;100.00
70304;BME280;57712;48.752;11.348;2024-01-10T03:41:15;98304.53;;;-5.09;100.00
70304;BME280;57712;48.752;11.348;2024-01-10T03:43:43;98308.50;;;-5.06;100.00
70304;BME280;57712;48.752;11.348;2024-01-10T03:46:11;98310.25;;;-5.15;100.00
70304;BME280;57712;48.752;11.348;2024-01-10T03:48:38;98305.53;;;-5.18;100.00
70304;BME280;57712;48.752;11.348;2024-01-10T03:51:18;98295.22;;;-5.11;100.00
70304;BME280;57712;48.752;11.348;2024-01-10T03:53:45;98301.66;;;-5.12;100.00
70304;BME280;57712;48.752;11.348;2024-01-10T03:56:12;98303.53;;;-5.27;100.00
70304;BME280;57712;48.752;11.348;2024-01-10T03:58:39;98297.41;;;-5.13;100.00
70304;BME280;57712;48.752;11.348;2024-01-10T04:01:07;98303.34;;;-5.30;100.00
70304;BME280;57712;48.752;11.348;2024-01-10T04:03:34;98303.22;;;-5.39;100.00
70304;BME280;57712;48.752;11.348;2024-01-10T04:06:02;98298.31;;;-5.18;100.00
70304;BME280;57712;48.752;11.348;2024-01-10T04:08:29;98304.31;;;-5.40;100.00
70304;BME280;57712;48.752;11.348;2024-01-10T04:10:56;98295.22;;;-5.39;100.00
70304;BME280;57712;48.752;11.348;2024-01-10T04:13:24;98299.97;;;-5.36;100.00
70304;BME280;57712;48.752;11.348;2024-01-10T04:15:51;98294.25;;;-5.29;100.00
70304;BME280;57712;48.752;11.348;2024-01-10T04:18:17;98301.56;;;-5.21;100.00
70304;BME280;57712;48.752;11.348;2024-01-10T04:20:45;98296.50;;;-5.23;100.00
70304;BME280;57712;48.752;11.348;2024-01-10T04:23:11;98299.69;;;-5.20;100.00
70304;BME280;57712;48.752;11.348;2024-01-10T04:25:38;98304.72;;;-5.19;100.00
70304;BME280;57712;48.752;11.348;2024-01-10T04:28:05;98306.69;;;-5.25;100.00
70304;BME280;57712;48.752;11.348;2024-01-10T04:30:32;98306.09;;;-5.22;100.00
70304;BME280;57712;48.752;11.348;2024-01-10T04:32:59;98312.03;;;-5.25;100.00
70304;BME280;57712;48.752;11.348;2024-01-10T04:35:26;98309.84;;;-5.23;100.00
70304;BME280;57712;48.752;11.348;2024-01-10T04:37:53;98303.34;;;-5.30;100.00
70304;BME280;57712;48.752;11.348;2024-01-10T04:40:20;98310.22;;;-5.43;100.00
70304;BME280;57712;48.752;11.348;2024-01-10T04:42:46;98312.22;;;-5.35;100.00
70304;BME280;57712;48.752;11.348;2024-01-10T04:45:13;98311.84;;;-5.28;100.00
70304;BME280;57712;48.752;11.348;2024-01-10T04:47:40;98311.84;;;-5.28;100.00
70304;BME280;57712;48.752;11.348;2024-01-10T04:50:07;98311.53;;;-5.27;100.00
70304;BME280;57712;48.752;11.348;2024-01-10T04:52:39;98302.81;;;-5.32;100.00
70304;BME280;57712;48.752;11.348;2024-01-10T04:55:06;98306.88;;;-5.35;100.00
70304;BME280;57712;48.752;11.348;2024-01-10T04:57:35;98309.25;;;-5.33;100.00
70304;BME280;57712;48.752;11.348;2024-01-10T05:00:02;98311.13;;;-5.34;100.00
70304;BME280;57712;48.752;11.348;2024-01-10T05:02:31;98317.66;;;-5.40;100.00
70304;BME280;57712;48.752;11.348;2024-01-10T05:04:58;98320.91;;;-5.43;100.00
70304;BME280;57712;48.752;11.348;2024-01-10T05:07:26;98322.41;;;-5.37;100.00
70304;BME280;57712;48.752;11.348;2024-01-10T05:09:53;98320.22;;;-5.35;100.00
70304;BME280;57712;48.752;11.348;2024-01-10T05:12:19;98326.66;;;-5.36;100.00
70304;BME280;57712;48.752;11.348;2024-01-10T05:14:46;98331.69;;;-5.34;100.00
70304;BME280;57712;48.752;11.348;2024-01-10T05:17:13;98327.63;;;-5.32;100.00
70304;BME280;57712;48.752;11.348;2024-01-10T05:19:40;98336.75;;;-5.33;100.00
70304;BME280;57712;48.752;11.348;2024-01-10T05:22:07;98323.38;;;-5.33;100.00
70304;BME280;57712;48.752;11.348;2024-01-10T05:24:34;98326.59;;;-5.31;100.00
70304;BME280;57712;48.752;11.348;2024-01-10T05:27:02;98328.66;;;-5.28;100.00
70304;BME280;57712;48.752;11.348;2024-01-10T05:29:29;98330.59;;;-5.33;100.00
70304;BME280;57712;48.752;11.348;2024-01-10T05:31:56;98334.78;;;-5.27;100.00
70304;BME280;57712;48.752;11.348;2024-01-10T05:34:23;98337.75;;;-5.29;100.00
70304;BME280;57712;48.752;11.348;2024-01-10T05:36:49;98331.63;;;-5.29;100.00
70304;BME280;57712;48.752;11.348;2024-01-10T05:39:16;98332.78;;;-5.22;100.00
70304;BME280;57712;48.752;11.348;2024-01-10T05:41:43;98333.63;;;-5.21;100.00
70304;BME280;57712;48.752;11.348;2024-01-10T05:44:12;98333.31;;;-5.19;100.00
70304;BME280;57712;48.752;11.348;2024-01-10T05:46:39;98337.75;;;-5.15;100.00
70304;BME280;57712;48.752;11.348;2024-01-10T05:49:07;98338.97;;;-5.21;100.00
70304;BME280;57712;48.752;11.348;2024-01-10T05:51:34;98347.56;;;-5.10;100.00
70304;BME280;57712;48.752;11.348;2024-01-10T05:54:01;98342.91;;;-5.18;100.00
70304;BME280;57712;48.752;11.348;2024-01-10T05:56:27;98334.41;;;-5.07;100.00
70304;BME280;57712;48.752;11.348;2024-01-10T05:58:54;98337.16;;;-5.12;100.00
70304;BME280;57712;48.752;11.348;2024-01-10T06:01:21;98336.88;;;-5.10;100.00
70304;BME280;57712;48.752;11.348;2024-01-10T06:03:48;98339.16;;;-5.17;100.00
70304;BME280;57712;48.752;11.348;2024-01-10T06:06:15;98338.31;;;-5.32;100.00
70304;BME280;57712;48.752;11.348;2024-01-10T06:08:42;98342.31;;;-5.15;100.00
70304;BME280;57712;48.752;11.348;2024-01-10T06:11:10;98334.97;;;-5.37;100.00
70304;BME280;57712;48.752;11.348;2024-01-10T06:13:37;98336.78;;;-5.05;100.00
70304;BME280;57712;48.752;11.348;2024-01-10T06:16:19;98344.09;;;-5.11;100.00
70304;BME280;57712;48.752;11.348;2024-01-10T06:18:46;98340.63;;;-5.11;100.00
70304;BME280;57712;48.752;11.348;2024-01-10T06:21:13;98340.44;;;-5.15;100.00
70304;BME280;57712;48.752;11.348;2024-01-10T06:23:40;98344.00;;;-5.19;100.00
70304;BME280;57712;48.752;11.348;2024-01-10T06:26:07;98349.00;;;-5.32;100.00
70304;BME280;57712;48.752;11.348;2024-01-10T06:28:34;98348.25;;;-5.18;100.00
70304;BME280;57712;48.752;11.348;2024-01-10T06:31:00;98355.66;;;-5.15;100.00
70304;BME280;57712;48.752;11.348;2024-01-10T06:33:27;98348.06;;;-5.08;100.00
70304;BME280;57712;48.752;11.348;2024-01-10T06:35:54;98353.47;;;-5.13;100.00
70304;BME280;57712;48.752;11.348;2024-01-10T06:38:21;98354.09;;;-5.16;100.00
70304;BME280;57712;48.752;11.348;2024-01-10T06:40:49;98351.81;;;-5.09;100.00
70304;BME280;57712;48.752;11.348;2024-01-10T06:43:17;98361.59;;;-5.18;100.00
70304;BME280;57712;48.752;11.348;2024-01-10T06:45:44;98358.13;;;-5.19;100.00
70304;BME280;57712;48.752;11.348;2024-01-10T06:48:11;98356.94;;;-5.27;100.00
70304;BME280;57712;48.752;11.348;2024-01-10T06:50:38;98351.78;;;-5.23;100.00
70304;BME280;57712;48.752;11.348;2024-01-10T06:53:06;98349.63;;;-5.21;100.00
70304;BME280;57712;48.752;11.348;2024-01-10T06:55:33;98347.75;;;-5.20;100.00
70304;BME280;57712;48.752;11.348;2024-01-10T06:58:00;98359.50;;;-5.22;100.00
70304;BME280;57712;48.752;11.348;2024-01-10T07:00:27;98359.00;;;-5.24;100.00
70304;BME280;57712;48.752;11.348;2024-01-10T07:02:54;98358.50;;;-5.26;100.00
70304;BME280;57712;48.752;11.348;2024-01-10T07:05:20;98366.16;;;-5.19;100.00
70304;BME280;57712;48.752;11.348;2024-01-10T07:07:47;98371.19;;;-5.17;100.00
70304;BME280;57712;48.752;11.348;2024-01-10T07:10:16;98377.53;;;-5.13;100.00
70304;BME280;57712;48.752;11.348;2024-01-10T07:12:43;98372.94;;;-5.27;100.00
70304;BME280;57712;48.752;11.348;2024-01-10T07:15:10;98372.19;;;-5.13;100.00
70304;BME280;57712;48.752;11.348;2024-01-10T07:17:38;98375.69;;;-5.32;100.00
70304;BME280;57712;48.752;11.348;2024-01-10T07:20:06;98374.28;;;-5.10;100.00
70304;BME280;57712;48.752;11.348;2024-01-10T07:22:34;98381.41;;;-5.06;100.00
70304;BME280;57712;48.752;11.348;2024-01-10T07:25:04;98379.63;;;-4.97;100.00
70304;BME280;57712;48.752;11.348;2024-01-10T07:27:34;98383.34;;;-5.11;100.00
70304;BME280;57712;48.752;11.348;2024-01-10T07:30:01;98383.69;;;-4.99;100.00
70304;BME280;57712;48.752;11.348;2024-01-10T07:32:27;98386.94;;;-5.02;100.00
70304;BME280;57712;48.752;11.348;2024-01-10T07:34:54;98384.25;;;-5.16;100.00
70304;BME280;57712;48.752;11.348;2024-01-10T07:37:21;98391.59;;;-4.94;100.00
70304;BME280;57712;48.752;11.348;2024-01-10T07:39:49;98385.63;;;-5.18;100.00
70304;BME280;57712;48.752;11.348;2024-01-10T07:42:19;98398.75;;;-4.89;100.00
70304;BME280;57712;48.752;11.348;2024-01-10T07:44:46;98406.34;;;-4.97;100.00
70304;BME280;57712;48.752;11.348;2024-01-10T07:47:15;98402.88;;;-4.97;100.00
70304;BME280;57712;48.752;11.348;2024-01-10T07:49:42;98401.88;;;-5.01;100.00
70304;BME280;57712;48.752;11.348;2024-01-10T07:52:08;98410.28;;;-4.94;100.00
70304;BME280;57712;48.752;11.348;2024-01-10T07:54:35;98403.19;;;-4.85;100.00
70304;BME280;57712;48.752;11.348;2024-01-10T07:57:02;98415.75;;;-4.99;100.00
70304;BME280;57712;48.752;11.348;2024-01-10T07:59:28;98414.16;;;-4.86;100.00
70304;BME280;57712;48.752;11.348;2024-01-10T08:01:56;98406.28;;;-4.78;100.00
70304;BME280;57712;48.752;11.348;2024-01-10T08:04:23;98410.41;;;-4.72;100.00
70304;BME280;57712;48.752;11.348;2024-01-10T08:06:50;98406.38;;;-4.55;100.00
70304;BME280;57712;48.752;11.348;2024-01-10T08:09:16;98396.34;;;-4.50;100.00
70304;BME280;57712;48.752;11.348;2024-01-10T08:11:45;98402.88;;;-4.28;100.00
70304;BME280;57712;48.752;11.348;2024-01-10T08:14:12;98415.09;;;-4.36;100.00
70304;BME280;57712;48.752;11.348;2024-01-10T08:16:39;98411.59;;;-4.23;100.00
70304;BME280;57712;48.752;11.348;2024-01-10T08:19:05;98410.63;;;-4.27;100.00
70304;BME280;57712;48.752;11.348;2024-01-10T08:21:32;98407.91;;;-4.13;100.00
70304;BME280;57712;48.752;11.348;2024-01-10T08:24:01;98406.03;;;-4.13;100.00
70304;BME280;57712;48.752;11.348;2024-01-10T08:26:28;98409.59;;;-4.17;100.00
70304;BME280;57712;48.752;11.348;2024-01-10T08:28:55;98405.28;;;-4.27;100.00
70304;BME280;57712;48.752;11.348;2024-01-10T08:31:22;98409.00;;;-4.14;100.00
70304;BME280;57712;48.752;11.348;2024-01-10T08:33:49;98409.81;;;-4.14;100.00
70304;BME280;57712;48.752;11.348;2024-01-10T08:36:16;98411.94;;;-4.02;100.00
70304;BME280;57712;48.752;11.348;2024-01-10T08:38:42;98412.16;;;-4.12;100.00
70304;BME280;57712;48.752;11.348;2024-01-10T08:41:09;98411.03;;;-3.97;100.00
70304;BME280;57712;48.752;11.348;2024-01-10T08:43:38;98416.47;;;-3.89;100.00
70304;BME280;57712;48.752;11.348;2024-01-10T08:46:05;98420.66;;;-3.96;100.00
70304;BME280;57712;48.752;11.348;2024-01-10T08:48:33;98423.31;;;-3.96;100.00
70304;BME280;57712;48.752;11.348;2024-01-10T08:51:00;98421.97;;;-4.08;100.00
70304;BME280;57712;48.752;11.348;2024-01-10T08:53:27;98431.91;;;-3.86;100.00
70304;BME280;57712;48.752;11.348;2024-01-10T08:55:54;98427.97;;;-3.88;100.00
70304;BME280;57712;48.752;11.348;2024-01-10T08:58:21;98428.97;;;-3.84;100.00
70304;BME280;57712;48.752;11.348;2024-01-10T09:00:47;98429.78;;;-3.61;100.00
70304;BME280;57712;48.752;11.348;2024-01-10T09:03:15;98435.53;;;-3.54;100.00
70304;BME280;57712;48.752;11.348;2024-01-10T09:05:41;98434.59;;;-3.86;100.00
70304;BME280;57712;48.752;11.348;2024-01-10T09:08:22;98441.16;;;-3.56;100.00
70304;BME280;57712;48.752;11.348;2024-01-10T09:10:49;98441.53;;;-3.49;100.00
70304;BME280;57712;48.752;11.348;2024-01-10T09:13:16;98437.34;;;-3.41;100.00
70304;BME280;57712;48.752;11.348;2024-01-10T09:15:43;98445.31;;;-3.50;100.00
70304;BME280;57712;48.752;11.348;2024-01-10T09:18:10;98435.28;;;-3.22;100.00
70304;BME280;57712;48.752;11.348;2024-01-10T09:20:37;98446.63;;;-2.94;100.00
70304;BME280;57712;48.752;11.348;2024-01-10T09:23:04;98445.25;;;-2.91;100.00
70304;BME280;57712;48.752;11.348;2024-01-10T09:25:31;98451.41;;;-2.51;100.00
70304;BME280;57712;48.752;11.348;2024-01-10T09:27:58;98448.47;;;-2.72;100.00
70304;BME280;57712;48.752;11.348;2024-01-10T09:30:26;98450.53;;;-3.00;100.00
70304;BME280;57712;48.752;11.348;2024-01-10T09:32:53;98447.84;;;-2.38;100.00
70304;BME280;57712;48.752;11.348;2024-01-10T09:35:20;98454.06;;;-2.91;100.00
70304;BME280;57712;48.752;11.348;2024-01-10T09:37:46;98460.78;;;-2.40;100.00
70304;BME280;57712;48.752;11.348;2024-01-10T09:40:14;98451.13;;;-2.80;100.00
70304;BME280;57712;48.752;11.348;2024-01-10T09:42:46;98459.38;;;-2.37;100.00
70304;BME280;57712;48.752;11.348;2024-01-10T09:45:15;98453.81;;;-2.49;100.00
70304;BME280;57712;48.752;11.348;2024-01-10T09:47:48;98456.31;;;-2.84;100.00
70304;BME280;57712;48.752;11.348;2024-01-10T09:50:15;98460.28;;;-2.42;100.00
70304;BME280;57712;48.752;11.348;2024-01-10T09:52:51;98455.78;;;-2.64;100.00
70304;BME280;57712;48.752;11.348;2024-01-10T09:55:21;98461.13;;;-2.95;100.00
70304;BME280;57712;48.752;11.348;2024-01-10T09:57:50;98460.16;;;-2.37;100.00
70304;BME280;57712;48.752;11.348;2024-01-10T10:00:18;98466.53;;;-2.15;100.00
70304;BME280;57712;48.752;11.348;2024-01-10T10:02:45;98467.94;;;-2.26;100.00
70304;BME280;57712;48.752;11.348;2024-01-10T10:05:17;98465.22;;;-2.35;100.00
70304;BME280;57712;48.752;11.348;2024-01-10T10:07:49;98463.91;;;-1.98;100.00
70304;BME280;57712;48.752;11.348;2024-01-10T10:10:18;98473.84;;;-2.07;100.00
70304;BME280;57712;48.752;11.348;2024-01-10T10:12:46;98466.47;;;-1.76;100.00
70304;BME280;57712;48.752;11.348;2024-01-10T10:15:19;98472.16;;;-1.68;100.00
70304;BME280;57712;48.752;11.348;2024-01-10T10:17:50;98459.09;;;-1.44;100.00
70304;BME280;57712;48.752;11.348;2024-01-10T10:20:25;98457.81;;;-1.55;100.00
70304;BME280;57712;48.752;11.348;2024-01-10T10:23:06;98457.25;;;-2.00;100.00
70304;BME280;57712;48.752;11.348;2024-01-10T10:25:35;98459.22;;;-1.49;100.00
70304;BME280;57712;48.752;11.348;2024-01-10T10:28:02;98459.88;;;-1.35;100.00
70304;BME280;57712;48.752;11.348;2024-01-10T10:30:33;98457.47;;;-1.10;100.00
70304;BME280;57712;48.752;11.348;2024-01-10T10:33:05;98459.97;;;-0.97;100.00
70304;BME280;57712;48.752;11.348;2024-01-10T10:35:33;98455.78;;;-0.60;100.00
70304;BME280;57712;48.752;11.348;2024-01-10T10:38:07;98466.78;;;-0.91;100.00
70304;BME280;57712;48.752;11.348;2024-01-10T10:40:36;98468.69;;;-0.91;100.00
70304;BME280;57712;48.752;11.348;2024-01-10T10:43:04;98464.22;;;-0.87;100.00
70304;BME280;57712;48.752;11.348;2024-01-10T10:45:32;98458.59;;;-1.63;100.00
70304;BME280;57712;48.752;11.348;2024-01-10T10:48:01;98459.50;;;-0.81;100.00
70304;BME280;57712;48.752;11.348;2024-01-10T10:50:33;98452.38;;;-0.86;100.00
70304;BME280;57712;48.752;11.348;2024-01-10T10:53:03;98455.59;;;-1.19;100.00
70304;BME280;57712;48.752;11.348;2024-01-10T10:55:31;98464.34;;;-0.75;100.00
70304;BME280;57712;48.752;11.348;2024-01-10T10:58:01;98465.88;;;-1.12;100.00
70304;BME280;57712;48.752;11.348;2024-01-10T11:00:36;98454.59;;;-0.88;100.00
70304;BME280;57712;48.752;11.348;2024-01-10T11:03:04;98461.53;;;-0.87;100.00
70304;BME280;57712;48.752;11.348;2024-01-10T11:05:31;98458.31;;;-0.63;100.00
70304;BME280;57712;48.752;11.348;2024-01-10T11:07:58;98460.84;;;-0.58;100.00
70304;BME280;57712;48.752;11.348;2024-01-10T11:10:35;98453.50;;;-0.40;100.00
70304;BME280;57712;48.752;11.348;2024-01-10T11:13:27;98458.94;;;-0.57;100.00
70304;BME280;57712;48.752;11.348;2024-01-10T11:16:30;98451.69;;;-0.27;100.00
70304;BME280;57712;48.752;11.348;2024-01-10T11:24:23;98440.75;;;0.28;99.06
70304;BME280;57712;48.752;11.348;2024-01-10T11:26:50;98447.88;;;0.53;99.51
70304;BME280;57712;48.752;11.348;2024-01-10T11:29:32;98444.97;;;0.58;94.04
70304;BME280;57712;48.752;11.348;2024-01-10T11:31:59;98445.34;;;1.35;85.13
70304;BME280;57712;48.752;11.348;2024-01-10T11:34:27;98439.53;;;2.99;79.58
70304;BME280;57712;48.752;11.348;2024-01-10T11:37:12;98446.88;;;2.06;77.06
70304;BME280;57712;48.752;11.348;2024-01-10T11:39:42;98439.44;;;3.24;74.38
70304;BME280;57712;48.752;11.348;2024-01-10T11:42:10;98437.25;;;3.45;72.84
70304;BME280;57712;48.752;11.348;2024-01-10T11:44:55;98444.84;;;2.68;72.29
70304;BME280;57712;48.752;11.348;2024-01-10T11:47:22;98441.91;;;2.73;73.04
70304;BME280;57712;48.752;11.348;2024-01-10T11:49:56;98443.25;;;2.14;74.62
70304;BME280;57712;48.752;11.348;2024-01-10T11:52:26;98447.63;;;2.43;74.18
70304;BME280;57712;48.752;11.348;2024-01-10T11:54:58;98440.28;;;2.44;76.40
70304;BME280;57712;48.752;11.348;2024-01-10T11:57:27;98435.84;;;1.99;76.79
70304;BME280;57712;48.752;11.348;2024-01-10T11:59:57;98444.06;;;3.23;78.02
70304;BME280;57712;48.752;11.348;2024-01-10T12:02:27;98433.22;;;3.39;70.87
70304;BME280;57712;48.752;11.348;2024-01-10T12:04:54;98429.06;;;2.29;73.03
70304;BME280;57712;48.752;11.348;2024-01-10T12:07:22;98435.84;;;1.87;76.47
70304;BME280;57712;48.752;11.348;2024-01-10T12:09:50;98426.13;;;2.35;80.23
70304;BME280;57712;48.752;11.348;2024-01-10T12:12:17;98426.13;;;2.90;78.48
70304;BME280;57712;48.752;11.348;2024-01-10T12:14:46;98429.09;;;1.81;79.88
70304;BME280;57712;48.752;11.348;2024-01-10T12:17:13;98422.53;;;2.18;81.61
70304;BME280;57712;48.752;11.348;2024-01-10T12:19:40;98429.97;;;3.17;76.51
70304;BME280;57712;48.752;11.348;2024-01-10T12:22:13;98427.22;;;3.02;74.50
70304;BME280;57712;48.752;11.348;2024-01-10T12:24:49;98427.22;;;3.02;74.62
70304;BME280;57712;48.752;11.348;2024-01-10T12:27:18;98435.56;;;3.25;73.42
70304;BME280;57712;48.752;11.348;2024-01-10T12:29:50;98430.50;;;4.02;70.34
70304;BME280;57712;48.752;11.348;2024-01-10T12:32:19;98424.16;;;4.29;67.56
70304;BME280;57712;48.752;11.348;2024-01-10T12:34:47;98423.38;;;5.06;66.23
70304;BME280;57712;48.752;11.348;2024-01-10T12:37:14;98416.41;;;4.67;63.37
70304;BME280;57712;48.752;11.348;2024-01-10T12:39:41;98417.13;;;5.94;61.82
70304;BME280;57712;48.752;11.348;2024-01-10T12:42:08;98417.91;;;4.64;61.43
70304;BME280;57712;48.752;11.348;2024-01-10T12:44:36;98418.22;;;5.20;61.52
70304;BME280;57712;48.752;11.348;2024-01-10T12:47:03;98416.97;;;4.76;61.60
70304;BME280;57712;48.752;11.348;2024-01-10T12:49:30;98412.34;;;5.87;60.90
70304;BME280;57712;48.752;11.348;2024-01-10T12:51:57;98419.84;;;4.83;61.93